sensor_id;sensor_type;location;lat;lon;timestamp;P1;durP1;ratioP1;P2;durP2;ratioP2
39082;SDS011;24834;44.444;26.098;2023-08-31T04:16:43;15.50;;;15.50;;
39082;SDS011;24834;44.444;26.098;2023-08-31T04:22:46;15.00;;;14.33;;
39082;SDS011;24834;44.444;26.098;2023-08-31T04:28:49;23.33;;;18.33;;
39082;SDS011;24834;44.444;26.098;2023-08-31T04:34:51;17.67;;;17.33;;
39082;SDS011;24834;44.444;26.098;2023-08-31T04:40:57;19.33;;;18.33;;
39082;SDS011;24834;44.444;26.098;2023-08-31T04:47:04;20.75;;;20.25;;
39082;SDS011;24834;44.444;26.098;2023-08-31T04:53:07;14.00;;;11.50;;
39082;SDS011;24834;44.444;26.098;2023-08-31T04:59:09;19.00;;;17.33;;
39082;SDS011;24834;44.444;26.098;2023-08-31T05:05:12;20.67;;;20.00;;
39082;SDS011;24834;44.444;26.098;2023-08-31T05:11:18;21.00;;;18.00;;
39082;SDS011;24834;44.444;26.098;2023-08-31T05:17:21;19.67;;;17.00;;
39082;SDS011;24834;44.444;26.098;2023-08-31T05:23:26;16.33;;;16.33;;
39082;SDS011;24834;44.444;26.098;2023-08-31T05:29:29;22.33;;;20.33;;
39082;SDS011;24834;44.444;26.098;2023-08-31T05:35:31;18.25;;;17.75;;
39082;SDS011;24834;44.444;26.098;2023-08-31T05:41:42;18.50;;;18.50;;
39082;SDS011;24834;44.444;26.098;2023-08-31T05:47:46;15.00;;;14.75;;
39082;SDS011;24834;44.444;26.098;2023-08-31T05:53:49;15.00;;;14.00;;
39082;SDS011;24834;44.444;26.098;2023-08-31T05:59:51;21.00;;;19.00;;
39082;SDS011;24834;44.444;26.098;2023-08-31T06:05:53;17.75;;;15.25;;
39082;SDS011;24834;44.444;26.098;2023-08-31T06:11:59;19.00;;;17.25;;
39082;SDS011;24834;44.444;26.098;2023-08-31T06:18:05;15.50;;;15.00;;
39082;SDS011;24834;44.444;26.098;2023-08-31T06:24:10;18.50;;;18.50;;
39082;SDS011;24834;44.444;26.098;2023-08-31T06:30:16;12.75;;;12.25;;
39082;SDS011;24834;44.444;26.098;2023-08-31T06:36:23;14.00;;;14.00;;
39082;SDS011;24834;44.444;26.098;2023-08-31T06:42:27;17.75;;;16.25;;
39082;SDS011;24834;44.444;26.098;2023-08-31T06:48:29;15.50;;;15.50;;
39082;SDS011;24834;44.444;26.098;2023-08-31T06:54:32;16.75;;;16.75;;
39082;SDS011;24834;44.444;26.098;2023-08-31T07:00:38;19.00;;;17.25;;
39082;SDS011;24834;44.444;26.098;2023-08-31T07:06:44;14.25;;;14.00;;
39082;SDS011;24834;44.444;26.098;2023-08-31T07:12:51;14.50;;;14.50;;
39082;SDS011;24834;44.444;26.098;2023-08-31T07:18:54;15.75;;;15.25;;
39082;SDS011;24834;44.444;26.098;2023-08-31T07:24:57;13.75;;;13.75;;
39082;SDS011;24834;44.444;26.098;2023-08-31T07:31:05;17.75;;;16.75;;
39082;SDS011;24834;44.444;26.098;2023-08-31T07:37:09;17.00;;;17.00;;
39082;SDS011;24834;44.444;26.098;2023-08-31T07:43:11;19.25;;;17.25;;
39082;SDS011;24834;44.444;26.098;2023-08-31T07:49:14;18.50;;;17.25;;
39082;SDS011;24834;44.444;26.098;2023-08-31T07:55:16;20.75;;;20.75;;
39082;SDS011;24834;44.444;26.098;2023-08-31T08:01:19;16.75;;;16.75;;
39082;SDS011;24834;44.444;26.098;2023-08-31T08:07:27;13.75;;;13.25;;
39082;SDS011;24834;44.444;26.098;2023-08-31T08:13:30;15.75;;;15.75;;
39082;SDS011;24834;44.444;26.098;2023-08-31T08:19:33;15.75;;;15.75;;
39082;SDS011;24834;44.444;26.098;2023-08-31T08:25:37;18.50;;;16.25;;
39082;SDS011;24834;44.444;26.098;2023-08-31T08:31:41;19.00;;;15.50;;
39082;SDS011;24834;44.444;26.098;2023-08-31T08:37:46;15.00;;;13.50;;
39082;SDS011;24834;44.444;26.098;2023-08-31T08:43:50;14.50;;;14.50;;
39082;SDS011;24834;44.444;26.098;2023-08-31T08:49:54;13.75;;;12.25;;
39082;SDS011;24834;44.444;26.098;2023-08-31T08:56:04;17.25;;;17.25;;
39082;SDS011;24834;44.444;26.098;2023-08-31T09:02:10;18.50;;;17.50;;
39082;SDS011;24834;44.444;26.098;2023-08-31T09:08:14;11.00;;;11.00;;
39082;SDS011;24834;44.444;26.098;2023-08-31T09:14:19;15.50;;;13.75;;
39082;SDS011;24834;44.444;26.098;2023-08-31T09:20:25;12.00;;;11.75;;
39082;SDS011;24834;44.444;26.098;2023-08-31T09:26:28;15.00;;;15.00;;
39082;SDS011;24834;44.444;26.098;2023-08-31T09:32:35;15.75;;;14.50;;
39082;SDS011;24834;44.444;26.098;2023-08-31T09:38:41;14.25;;;12.75;;
39082;SDS011;24834;44.444;26.098;2023-08-31T09:44:49;12.75;;;12.00;;
39082;SDS011;24834;44.444;26.098;2023-08-31T09:51:05;13.25;;;12.00;;
39082;SDS011;24834;44.444;26.098;2023-08-31T09:57:11;8.50;;;8.50;;
39082;SDS011;24834;44.444;26.098;2023-08-31T10:03:18;12.25;;;12.00;;
39082;SDS011;24834;44.444;26.098;2023-08-31T10:09:23;15.25;;;14.00;;
39082;SDS011;24834;44.444;26.098;2023-08-31T10:15:36;13.25;;;12.50;;
39082;SDS011;24834;44.444;26.098;2023-08-31T10:21:40;8.75;;;6.50;;
39082;SDS011;24834;44.444;26.098;2023-08-31T10:27:45;10.50;;;10.50;;
39082;SDS011;24834;44.444;26.098;2023-08-31T10:40:09;12.00;;;9.25;;
39082;SDS011;24834;44.444;26.098;2023-08-31T10:52:32;15.50;;;15.50;;
39082;SDS011;24834;44.444;26.098;2023-08-31T10:59:00;10.50;;;10.50;;
39082;SDS011;24834;44.444;26.098;2023-08-31T11:05:15;10.00;;;10.00;;
39082;SDS011;24834;44.444;26.098;2023-08-31T11:11:26;9.50;;;8.75;;
39082;SDS011;24834;44.444;26.098;2023-08-31T11:17:30;9.75;;;9.25;;
39082;SDS011;24834;44.444;26.098;2023-08-31T11:23:39;12.25;;;11.75;;
39082;SDS011;24834;44.444;26.098;2023-08-31T11:29:46;9.25;;;8.50;;
39082;SDS011;24834;44.444;26.098;2023-08-31T11:35:49;12.50;;;11.25;;
39082;SDS011;24834;44.444;26.098;2023-08-31T11:41:53;30.00;;;28.00;;
39082;SDS011;24834;44.444;26.098;2023-08-31T11:47:56;16.50;;;16.50;;
39082;SDS011;24834;44.444;26.098;2023-08-31T11:54:03;8.00;;;8.00;;
39082;SDS011;24834;44.444;26.098;2023-08-31T12:00:06;8.75;;;7.75;;
39082;SDS011;24834;44.444;26.098;2023-08-31T12:06:18;17.00;;;15.25;;
39082;SDS011;24834;44.444;26.098;2023-08-31T12:12:24;13.75;;;11.00;;
39082;SDS011;24834;44.444;26.098;2023-08-31T12:18:30;10.00;;;10.00;;
39082;SDS011;24834;44.444;26.098;2023-08-31T12:24:40;5.00;;;5.00;;
39082;SDS011;24834;44.444;26.098;2023-08-31T12:30:47;15.00;;;14.00;;
39082;SDS011;24834;44.444;26.098;2023-08-31T12:36:54;8.00;;;7.00;;
39082;SDS011;24834;44.444;26.098;2023-08-31T12:43:01;10.00;;;10.00;;
39082;SDS011;24834;44.444;26.098;2023-08-31T12:49:06;7.50;;;7.50;;
39082;SDS011;24834;44.444;26.098;2023-08-31T12:55:10;7.50;;;7.50;;
39082;SDS011;24834;44.444;26.098;2023-08-31T13:01:14;5.00;;;5.00;;
39082;SDS011;24834;44.444;26.098;2023-08-31T13:07:16;7.25;;;7.25;;
39082;SDS011;24834;44.444;26.098;2023-08-31T13:13:20;8.00;;;7.25;;
39082;SDS011;24834;44.444;26.098;2023-08-31T13:19:23;9.75;;;9.50;;
39082;SDS011;24834;44.444;26.098;2023-08-31T13:25:31;7.75;;;7.75;;
39082;SDS011;24834;44.444;26.098;2023-08-31T13:31:33;7.00;;;7.00;;
39082;SDS011;24834;44.444;26.098;2023-08-31T13:37:40;2.25;;;2.25;;
39082;SDS011;24834;44.444;26.098;2023-08-31T13:43:42;9.25;;;9.00;;
39082;SDS011;24834;44.444;26.098;2023-08-31T13:49:45;5.00;;;5.00;;
39082;SDS011;24834;44.444;26.098;2023-08-31T13:55:47;6.50;;;6.50;;
39082;SDS011;24834;44.444;26.098;2023-08-31T14:01:49;7.25;;;6.00;;
39082;SDS011;24834;44.444;26.098;2023-08-31T14:07:53;5.75;;;5.75;;
39082;SDS011;24834;44.444;26.098;2023-08-31T14:14:04;8.75;;;7.75;;
39082;SDS011;24834;44.444;26.098;2023-08-31T14:20:13;12.50;;;10.25;;
39082;SDS011;24834;44.444;26.098;2023-08-31T14:26:15;6.25;;;6.25;;
39082;SDS011;24834;44.444;26.098;2023-08-31T14:32:19;6.75;;;6.75;;
39082;SDS011;24834;44.444;26.098;2023-08-31T14:38:21;6.75;;;6.75;;
39082;SDS011;24834;44.444;26.098;2023-08-31T14:44:25;5.00;;;5.00;;
39082;SDS011;24834;44.444;26.098;2023-08-31T14:50:27;6.50;;;6.25;;
39082;SDS011;24834;44.444;26.098;2023-08-31T14:56:29;6.00;;;6.00;;
39082;SDS011;24834;44.444;26.098;2023-08-31T15:02:32;5.50;;;4.00;;
39082;SDS011;24834;44.444;26.098;2023-08-31T15:08:36;7.50;;;7.50;;
39082;SDS011;24834;44.444;26.098;2023-08-31T15:14:40;6.50;;;6.00;;
39082;SDS011;24834;44.444;26.098;2023-08-31T15:20:43;7.50;;;7.50;;
39082;SDS011;24834;44.444;26.098;2023-08-31T15:26:46;7.25;;;5.25;;
39082;SDS011;24834;44.444;26.098;2023-08-31T15:32:49;5.00;;;5.00;;
39082;SDS011;24834;44.444;26.098;2023-08-31T15:38:52;9.00;;;7.75;;
39082;SDS011;24834;44.444;26.098;2023-08-31T15:44:54;10.25;;;7.50;;
39082;SDS011;24834;44.444;26.098;2023-08-31T15:50:58;6.75;;;6.75;;
39082;SDS011;24834;44.444;26.098;2023-08-31T15:57:02;6.00;;;6.00;;
39082;SDS011;24834;44.444;26.098;2023-08-31T16:03:07;6.00;;;6.00;;
39082;SDS011;24834;44.444;26.098;2023-08-31T16:09:11;5.25;;;5.25;;
39082;SDS011;24834;44.444;26.098;2023-08-31T16:15:15;5.75;;;3.50;;
39082;SDS011;24834;44.444;26.098;2023-08-31T16:21:17;5.75;;;5.75;;
39082;SDS011;24834;44.444;26.098;2023-08-31T16:27:21;5.25;;;5.25;;
39082;SDS011;24834;44.444;26.098;2023-08-31T16:33:23;8.50;;;8.25;;
39082;SDS011;24834;44.444;26.098;2023-08-31T16:39:26;7.75;;;7.75;;
39082;SDS011;24834;44.444;26.098;2023-08-31T16:45:29;6.75;;;6.75;;
39082;SDS011;24834;44.444;26.098;2023-08-31T16:51:31;7.75;;;7.75;;
39082;SDS011;24834;44.444;26.098;2023-08-31T16:57:34;9.75;;;8.00;;
39082;SDS011;24834;44.444;26.098;2023-08-31T17:03:36;6.50;;;6.50;;
39082;SDS011;24834;44.444;26.098;2023-08-31T17:09:41;5.00;;;5.00;;
39082;SDS011;24834;44.444;26.098;2023-08-31T17:15:43;9.00;;;9.00;;
39082;SDS011;24834;44.444;26.098;2023-08-31T17:21:47;8.75;;;8.75;;
39082;SDS011;24834;44.444;26.098;2023-08-31T17:27:49;6.00;;;6.00;;
39082;SDS011;24834;44.444;26.098;2023-08-31T17:33:52;12.00;;;10.25;;
39082;SDS011;24834;44.444;26.098;2023-08-31T17:39:57;11.75;;;11.75;;
39082;SDS011;24834;44.444;26.098;2023-08-31T17:46:01;12.25;;;11.25;;
39082;SDS011;24834;44.444;26.098;2023-08-31T17:52:05;10.75;;;10.75;;
39082;SDS011;24834;44.444;26.098;2023-08-31T17:58:08;11.25;;;9.75;;
39082;SDS011;24834;44.444;26.098;2023-08-31T18:04:11;10.25;;;9.25;;
39082;SDS011;24834;44.444;26.098;2023-08-31T18:10:15;12.50;;;11.50;;
39082;SDS011;24834;44.444;26.098;2023-08-31T18:16:18;16.25;;;14.25;;
39082;SDS011;24834;44.444;26.098;2023-08-31T18:22:24;14.50;;;14.50;;
39082;SDS011;24834;44.444;26.098;2023-08-31T18:28:28;12.00;;;12.00;;
39082;SDS011;24834;44.444;26.098;2023-08-31T18:34:33;17.00;;;13.25;;
39082;SDS011;24834;44.444;26.098;2023-08-31T18:40:36;12.00;;;11.50;;
39082;SDS011;24834;44.444;26.098;2023-08-31T18:46:38;16.75;;;15.75;;
39082;SDS011;24834;44.444;26.098;2023-08-31T18:52:41;18.75;;;14.75;;
39082;SDS011;24834;44.444;26.098;2023-08-31T18:58:46;17.25;;;15.25;;
39082;SDS011;24834;44.444;26.098;2023-08-31T19:04:49;15.75;;;13.75;;
39082;SDS011;24834;44.444;26.098;2023-08-31T19:10:55;21.50;;;21.00;;
39082;SDS011;24834;44.444;26.098;2023-08-31T19:16:58;16.00;;;14.25;;
39082;SDS011;24834;44.444;26.098;2023-08-31T19:23:01;22.00;;;19.75;;
39082;SDS011;24834;44.444;26.098;2023-08-31T19:29:06;23.50;;;22.75;;
39082;SDS011;24834;44.444;26.098;2023-08-31T19:35:08;22.25;;;19.75;;
39082;SDS011;24834;44.444;26.098;2023-08-31T19:41:31;24.50;;;20.25;;
39082;SDS011;24834;44.444;26.098;2023-08-31T19:47:35;20.00;;;18.33;;
39082;SDS011;24834;44.444;26.098;2023-08-31T19:53:37;21.33;;;21.33;;
39082;SDS011;24834;44.444;26.098;2023-08-31T19:59:42;18.00;;;16.50;;
39082;SDS011;24834;44.444;26.098;2023-08-31T20:05:45;22.25;;;20.50;;
39082;SDS011;24834;44.444;26.098;2023-08-31T20:11:47;19.50;;;19.00;;
39082;SDS011;24834;44.444;26.098;2023-08-31T20:17:49;18.75;;;18.75;;
39082;SDS011;24834;44.444;26.098;2023-08-31T20:23:53;21.25;;;19.00;;
39082;SDS011;24834;44.444;26.098;2023-08-31T20:30:00;21.75;;;17.00;;
39082;SDS011;24834;44.444;26.098;2023-08-31T20:36:06;21.75;;;20.50;;
39082;SDS011;24834;44.444;26.098;2023-08-31T20:42:10;23.75;;;22.25;;
39082;SDS011;24834;44.444;26.098;2023-08-31T20:48:15;22.00;;;22.00;;
39082;SDS011;24834;44.444;26.098;2023-08-31T20:54:19;21.00;;;18.75;;
39082;SDS011;24834;44.444;26.098;2023-08-31T21:00:25;18.25;;;17.50;;
39082;SDS011;24834;44.444;26.098;2023-08-31T21:06:27;19.33;;;18.67;;
39082;SDS011;24834;44.444;26.098;2023-08-31T21:12:31;21.75;;;19.50;;
39082;SDS011;24834;44.444;26.098;2023-08-31T21:18:34;19.33;;;17.33;;
39082;SDS011;24834;44.444;26.098;2023-08-31T21:24:38;18.67;;;14.33;;
39082;SDS011;24834;44.444;26.098;2023-08-31T21:30:42;15.25;;;11.75;;
39082;SDS011;24834;44.444;26.098;2023-08-31T21:36:44;14.50;;;14.50;;
39082;SDS011;24834;44.444;26.098;2023-08-31T21:42:47;15.75;;;15.75;;
39082;SDS011;24834;44.444;26.098;2023-08-31T21:48:49;17.33;;;15.00;;
39082;SDS011;24834;44.444;26.098;2023-08-31T21:54:54;14.50;;;14.25;;
39082;SDS011;24834;44.444;26.098;2023-08-31T22:00:56;13.00;;;13.00;;
39082;SDS011;24834;44.444;26.098;2023-08-31T22:06:58;10.50;;;10.50;;
39082;SDS011;24834;44.444;26.098;2023-08-31T22:13:01;14.25;;;13.25;;
39082;SDS011;24834;44.444;26.098;2023-08-31T22:19:04;13.50;;;11.50;;
39082;SDS011;24834;44.444;26.098;2023-08-31T22:25:08;7.00;;;7.00;;
39082;SDS011;24834;44.444;26.098;2023-08-31T22:31:12;13.25;;;12.50;;
39082;SDS011;24834;44.444;26.098;2023-08-31T22:37:16;12.50;;;11.50;;
39082;SDS011;24834;44.444;26.098;2023-08-31T22:43:20;11.75;;;11.75;;
39082;SDS011;24834;44.444;26.098;2023-08-31T22:49:24;11.50;;;11.00;;
39082;SDS011;24834;44.444;26.098;2023-08-31T22:55:26;10.33;;;10.33;;
39082;SDS011;24834;44.444;26.098;2023-08-31T23:01:30;15.00;;;12.00;;
39082;SDS011;24834;44.444;26.098;2023-08-31T23:07:33;11.75;;;11.75;;
39082;SDS011;24834;44.444;26.098;2023-08-31T23:13:36;11.25;;;11.25;;
39082;SDS011;24834;44.444;26.098;2023-08-31T23:19:38;11.00;;;11.00;;
39082;SDS011;24834;44.444;26.098;2023-08-31T23:25:40;11.50;;;11.50;;
39082;SDS011;24834;44.444;26.098;2023-08-31T23:31:44;12.00;;;11.67;;
39082;SDS011;24834;44.444;26.098;2023-08-31T23:37:54;10.00;;;9.25;;
39082;SDS011;24834;44.444;26.098;2023-08-31T23:43:57;11.00;;;11.00;;
39082;SDS011;24834;44.444;26.098;2023-08-31T23:49:59;11.75;;;11.25;;
39082;SDS011;24834;44.444;26.098;2023-08-31T23:56:05;12.25;;;11.25;;
